Paso de los Libres, Argentina
Current Conditions -  °F | °C
As of 7:00 PM on Friday 31 Oct 2014 (Local Time) from SARL Reporting Station
Scattered Clouds Scattered Clouds  
Wind Chill: 73°   Ceiling: Unl
Heat Index: 73°   Visibility: 6mi
Dew Point: 70°   Wind: 9mph
Humidity: 88%   Direction: 90°E
Pressure: 29.85"   Gusts: NA
Location:  29.72°S, 57.08°W
Report Text: SARL 312200Z 09008KT 9999 SCT018 SCT035TCU 23/21 Q1011
Loading
Personal Weather Stations






























Interactive Weather Map New forecast layout! Learn more

10-Day Weather Forecast

Advertisements
Track Severe Weather on mobile